Time;durP1;ratioP1;P1;durP2;ratioP2;P2;SDS_P1;SDS_P2;PMS_P1;PMS_P2;Temp;Humidity;BMP_temperature;BMP_pressure;BME280_temperature;BME280_humidity;BME280_pressure;Samples;Min_cycle;Max_cycle;Signal;HPM_P1;HPM_P2
2021/11/25 00:01:40;;;;;;;78.60;29.35;;;;;;;5.82;89.73;101442.34;5052721;28;20032;-72
2021/11/25 00:04:06;;;;;;;71.63;28.25;;;;;;;5.97;89.58;101447.84;5034863;28;20115;-72
2021/11/25 00:06:31;;;;;;;71.38;27.80;;;;;;;6.03;88.85;101431.88;5052798;28;20031;-73
2021/11/25 00:08:56;;;;;;;69.28;27.75;;;;;;;6.03;89.31;101438.78;5052629;28;20056;-73
2021/11/25 00:11:24;;;;;;;72.43;27.67;;;;;;;5.89;88.63;101401.53;5034892;28;20426;-73
2021/11/25 00:13:49;;;;;;;78.40;29.27;;;;;;;6.08;88.98;101434.84;5034895;28;20021;-73
2021/11/25 00:16:14;;;;;;;66.53;27.55;;;;;;;6.15;88.63;101429.16;5034890;28;20086;-73
2021/11/25 00:18:39;;;;;;;76.47;29.35;;;;;;;6.08;88.65;101434.03;5052707;28;20031;-73
2021/11/25 00:21:05;;;;;;;73.60;29.02;;;;;;;6.10;88.41;101437.28;5052447;28;20376;-73
2021/11/25 00:23:30;;;;;;;76.55;29.13;;;;;;;6.04;88.80;101428.41;5052222;28;20102;-73
2021/11/25 00:25:55;;;;;;;79.30;29.67;;;;;;;6.09;88.46;101433.88;5052295;28;20029;-73
2021/11/25 00:28:21;;;;;;;71.93;27.65;;;;;;;6.08;88.08;101416.09;5052595;28;20449;-73
2021/11/25 00:30:46;;;;;;;75.50;28.38;;;;;;;6.10;87.73;101419.31;5052586;28;20021;-73
2021/11/25 00:33:11;;;;;;;75.10;28.55;;;;;;;6.06;88.09;101423.09;5052546;28;20021;-73
2021/11/25 00:35:37;;;;;;;76.20;30.48;;;;;;;6.12;88.46;101417.41;5052518;28;20032;-73
2021/11/25 00:38:02;;;;;;;79.47;29.08;;;;;;;6.12;87.91;101421.72;5034654;28;20543;-73
2021/11/25 00:40:27;;;;;;;78.38;29.23;;;;;;;5.98;88.61;101417.88;5034554;28;20025;-73
2021/11/25 00:42:53;;;;;;;77.28;29.05;;;;;;;6.07;88.69;101417.00;5052427;28;20108;-72
2021/11/25 00:45:18;;;;;;;88.43;30.63;;;;;;;6.12;87.99;101417.41;5034567;28;20064;-72
2021/11/25 00:47:44;;;;;;;76.82;29.23;;;;;;;6.19;87.62;101413.34;5055658;28;20029;-72
2021/11/25 00:50:12;;;;;;;70.82;28.75;;;;;;;6.12;87.86;101404.56;5055918;28;20021;-72
2021/11/25 00:52:38;;;;;;;76.05;29.05;;;;;;;6.12;87.64;101407.13;5038000;28;20028;-72
2021/11/25 00:55:04;;;;;;;74.32;28.27;;;;;;;5.84;87.81;101368.63;5055782;28;20483;-72
2021/11/25 00:57:29;;;;;;;71.03;28.75;;;;;;;6.04;87.42;101397.59;5037822;28;20021;-72
2021/11/25 00:59:54;;;;;;;73.07;28.73;;;;;;;6.03;87.24;101395.16;5055785;28;20032;-72
2021/11/25 01:02:20;;;;;;;72.72;28.60;;;;;;;6.06;87.42;101392.31;5055686;28;20433;-72
2021/11/25 01:04:46;;;;;;;73.40;29.73;;;;;;;6.14;86.61;101384.72;5055702;28;20184;-72
2021/11/25 01:07:11;;;;;;;73.55;28.70;;;;;;;6.03;86.97;101390.84;5055589;28;20521;-72
2021/11/25 01:09:37;;;;;;;72.70;28.77;;;;;;;6.20;86.42;101383.34;5055410;28;20408;-72
2021/11/25 01:12:03;;;;;;;69.50;29.23;;;;;;;6.22;86.68;101382.25;5055889;28;20036;-72
2021/11/25 01:14:30;;;;;;;66.90;27.70;;;;;;;6.15;86.68;101381.19;5037629;28;20032;-72
2021/11/25 01:16:55;;;;;;;78.88;29.38;;;;;;;6.05;86.48;101386.38;5055434;28;20361;-72
2021/11/25 01:19:21;;;;;;;72.95;27.58;;;;;;;6.18;85.41;101377.53;5055401;28;20082;-72
2021/11/25 01:21:46;;;;;;;73.32;28.20;;;;;;;6.29;84.93;101382.47;5055318;28;20024;-71
2021/11/25 01:24:11;;;;;;;71.07;28.38;;;;;;;6.20;85.22;101375.63;5055374;28;20029;-72
2021/11/25 01:26:37;;;;;;;73.85;28.63;;;;;;;6.09;85.41;101374.06;5037373;28;20391;-72
2021/11/25 01:29:03;;;;;;;73.65;28.25;;;;;;;6.20;85.50;101385.91;5055295;28;20048;-72
2021/11/25 01:31:28;;;;;;;69.45;28.05;;;;;;;6.25;84.67;101381.16;5055282;28;20017;-71
2021/11/25 01:33:54;;;;;;;76.72;29.27;;;;;;;6.21;84.27;101378.03;5037231;28;20071;-72
2021/11/25 01:36:19;;;;;;;71.53;28.48;;;;;;;6.14;84.22;101376.22;5055121;28;20024;-72
2021/11/25 01:38:44;;;;;;;71.20;28.20;;;;;;;6.14;83.57;101378.78;5037214;28;20021;-72
2021/11/25 01:41:09;;;;;;;72.97;28.52;;;;;;;6.11;84.14;101382.44;5054889;28;20021;-71
2021/11/25 01:43:38;;;;;;;71.35;28.05;;;;;;;6.05;83.37;101385.59;5055024;28;20021;-72
2021/11/25 01:46:13;;;;;;;68.32;27.38;;;;;;;6.04;83.67;101383.94;5054972;28;20071;-72
2021/11/25 01:48:39;;;;;;;68.53;28.20;;;;;;;6.10;84.00;101383.41;5054953;28;20025;-71
2021/11/25 01:51:04;;;;;;;64.93;27.05;;;;;;;6.11;83.26;101367.03;5054720;28;20074;-72
2021/11/25 01:53:30;;;;;;;62.22;26.67;;;;;;;6.07;82.88;101366.53;5054816;28;20115;-72
2021/11/25 01:55:55;;;;;;;62.92;25.95;;;;;;;6.09;81.80;101353.53;5054760;28;20024;-72
2021/11/25 01:58:21;;;;;;;60.05;25.55;;;;;;;5.98;81.61;101351.97;5054398;28;20418;-72
2021/11/25 02:00:51;;;;;;;62.75;26.75;;;;;;;6.07;81.31;101350.31;5054615;28;20064;-72
2021/11/25 02:03:17;;;;;;;61.05;25.80;;;;;;;6.02;81.37;101349.94;5036674;28;20028;-72
2021/11/25 02:05:42;;;;;;;62.90;25.50;;;;;;;6.09;80.48;101340.72;5054545;28;20040;-72
2021/11/25 02:08:07;;;;;;;59.40;24.88;;;;;;;6.01;80.55;101349.16;5036446;28;20049;-72
2021/11/25 02:10:35;;;;;;;56.30;25.23;;;;;;;5.97;80.54;101340.09;5054506;28;20021;-72
2021/11/25 02:13:00;;;;;;;58.13;26.38;;;;;;;6.11;80.39;101341.38;5054361;28;20040;-71
2021/11/25 02:15:26;;;;;;;54.28;25.40;;;;;;;6.12;80.09;101347.31;5036405;28;20025;-72
2021/11/25 02:17:51;;;;;;;54.30;25.20;;;;;;;6.00;80.15;101339.81;5036486;28;20124;-72
2021/11/25 02:20:17;;;;;;;58.40;25.08;;;;;;;6.09;79.54;101338.13;5036336;28;20025;-72
2021/11/25 02:22:43;;;;;;;57.85;26.45;;;;;;;6.13;78.97;101336.91;5054182;28;20032;-71
2021/11/25 02:25:12;;;;;;;60.10;24.92;;;;;;;6.09;78.44;101330.44;5054129;28;20029;-72
2021/11/25 02:27:38;;;;;;;55.22;25.85;;;;;;;6.10;78.97;101326.94;5054693;28;20056;-72
2021/11/25 02:30:05;;;;;;;54.55;25.52;;;;;;;6.18;77.88;101326.22;5054101;28;20078;-71
2021/11/25 02:32:32;;;;;;;49.55;24.13;;;;;;;6.10;78.68;101321.81;5036048;28;20032;-71
2021/11/25 02:34:59;;;;;;;52.95;25.15;;;;;;;6.19;78.76;101320.13;5053986;28;20025;-71
2021/11/25 02:37:24;;;;;;;51.47;24.85;;;;;;;6.02;78.76;101311.47;5053956;28;20025;-71
2021/11/25 02:39:50;;;;;;;55.20;23.70;;;;;;;6.02;78.82;101317.38;5053916;28;20021;-71
2021/11/25 02:42:16;;;;;;;54.33;24.58;;;;;;;5.86;78.90;101309.47;5053842;28;20043;-71
2021/11/25 02:44:42;;;;;;;51.17;23.42;;;;;;;6.00;78.21;101308.22;5053846;28;20472;-72
2021/11/25 02:47:07;;;;;;;47.03;23.48;;;;;;;5.97;78.48;101304.19;5053778;28;20111;-72
2021/11/25 02:49:32;;;;;;;50.28;23.35;;;;;;;6.01;78.20;101308.09;5053745;28;20442;-72
2021/11/25 02:51:57;;;;;;;47.95;22.67;;;;;;;5.98;78.50;101295.53;5035828;28;20067;-71
2021/11/25 02:54:23;;;;;;;49.85;22.67;;;;;;;6.07;78.33;101301.53;5035730;28;20124;-73
2021/11/25 02:56:48;;;;;;;50.42;23.38;;;;;;;6.00;78.94;101297.97;5053695;28;20108;-73
2021/11/25 02:59:13;;;;;;;52.63;22.75;;;;;;;6.03;78.61;101295.09;5053587;28;20021;-73
2021/11/25 03:01:39;;;;;;;49.75;23.27;;;;;;;5.93;77.93;101297.72;5053498;28;20028;-72
2021/11/25 03:04:06;;;;;;;48.10;23.60;;;;;;;5.95;79.04;101298.38;5053472;28;20036;-71
2021/11/25 03:06:32;;;;;;;48.35;23.27;;;;;;;6.04;78.85;101292.41;5053424;28;20108;-72
2021/11/25 03:08:58;;;;;;;49.22;23.63;;;;;;;5.96;79.43;101294.06;5052702;28;20059;-72
2021/11/25 03:11:25;;;;;;;49.72;23.88;;;;;;;5.87;80.13;101298.28;5053388;28;20021;-72
2021/11/25 03:13:57;;;;;;;46.95;22.98;;;;;;;5.94;80.12;101288.28;5035406;28;20087;-72
2021/11/25 03:16:25;;;;;;;48.55;23.60;;;;;;;5.90;79.86;101285.16;5035468;28;20063;-72
2021/11/25 03:18:51;;;;;;;50.13;24.15;;;;;;;5.89;80.24;101283.53;5053411;28;20037;-72
2021/11/25 03:21:18;;;;;;;52.15;23.95;;;;;;;5.85;81.22;101292.47;5053426;28;20072;-72
2021/11/25 03:23:46;;;;;;;50.20;24.42;;;;;;;5.86;80.63;101291.50;5053213;28;20421;-73
2021/11/25 03:26:14;;;;;;;51.65;24.38;;;;;;;5.70;80.64;101292.16;5053527;28;20489;-72
2021/11/25 03:28:44;;;;;;;49.15;23.83;;;;;;;5.66;80.59;101275.41;5035491;28;20028;-72
2021/11/25 03:31:31;;;;;;;52.35;25.02;;;;;;;5.66;82.04;101286.47;5035264;28;20025;-71
2021/11/25 03:33:58;;;;;;;52.13;25.08;;;;;;;5.64;82.24;101285.03;5053301;28;20025;-72
2021/11/25 03:36:24;;;;;;;52.60;24.30;;;;;;;5.75;81.44;101284.81;5035548;28;20472;-72
2021/11/25 03:38:51;;;;;;;52.28;25.83;;;;;;;5.49;82.51;101246.22;5053132;28;20510;-72
2021/11/25 03:41:18;;;;;;;53.72;24.90;;;;;;;5.74;82.16;101280.66;5052951;28;20104;-72
2021/11/25 03:43:44;;;;;;;53.13;25.52;;;;;;;5.68;82.46;101280.41;5053576;28;20091;-73
2021/11/25 03:46:10;;;;;;;48.90;25.35;;;;;;;5.68;81.81;101283.78;5053050;28;20021;-72
2021/11/25 03:48:35;;;;;;;54.50;25.73;;;;;;;5.72;83.15;101286.88;5035116;28;20116;-72
2021/11/25 03:51:03;;;;;;;55.55;25.92;;;;;;;5.82;83.56;101283.31;5035052;28;20024;-72
2021/11/25 03:53:29;;;;;;;57.10;27.45;;;;;;;5.70;83.88;101287.03;5052971;28;20058;-72
2021/11/25 03:55:54;;;;;;;58.90;27.35;;;;;;;5.56;84.06;101282.38;5035004;28;20028;-72
2021/11/25 03:58:20;;;;;;;60.55;28.65;;;;;;;5.52;84.96;101286.94;5052938;28;20021;-72
2021/11/25 04:00:46;;;;;;;55.78;27.38;;;;;;;5.45;85.47;101280.78;5034988;28;20387;-72
2021/11/25 04:03:12;;;;;;;60.90;27.85;;;;;;;5.49;86.47;101284.66;5052820;28;20040;-72
2021/11/25 04:05:38;;;;;;;60.28;27.95;;;;;;;5.47;85.91;101278.06;5035026;28;20029;-71
2021/11/25 04:08:03;;;;;;;56.90;27.83;;;;;;;5.47;85.66;101278.06;5052628;28;20028;-72
2021/11/25 04:10:29;;;;;;;62.90;28.95;;;;;;;5.46;84.94;101268.75;5034981;28;20029;-72
2021/11/25 04:12:54;;;;;;;62.60;28.75;;;;;;;5.42;nan;101260.56;5052819;28;20547;-72
2021/11/25 04:15:20;;;;;;;58.92;27.92;;;;;;;5.20;85.50;101262.50;5052750;28;20025;-72
2021/11/25 04:17:45;;;;;;;63.13;28.52;;;;;;;5.29;85.47;101252.38;5052765;28;20487;-72
2021/11/25 04:20:11;;;;;;;63.47;29.67;;;;;;;5.21;86.30;101255.66;5053256;28;20391;-71
2021/11/25 04:22:37;;;;;;;63.00;29.88;;;;;;;5.22;86.83;101233.38;5056757;28;20021;-71
2021/11/25 04:25:04;;;;;;;62.40;29.63;;;;;;;5.14;87.01;101234.88;5038626;28;20076;-72
2021/11/25 04:27:29;;;;;;;63.72;30.85;;;;;;;5.15;87.65;101233.97;5056351;28;20494;-71
2021/11/25 04:35:34;;;;;;;66.65;30.00;;;;;;;5.09;87.74;101211.47;5058022;28;20043;-71
2021/11/25 04:38:13;;;;;;;63.78;29.63;;;;;;;5.16;86.86;101216.81;5056652;28;20023;-72
2021/11/25 04:40:46;;;;;;;65.18;30.27;;;;;;;5.18;87.41;101214.94;5050714;28;20480;-71
2021/11/25 04:43:11;;;;;;;62.33;28.90;;;;;;;5.20;87.23;101218.16;5056275;28;20387;-72
2021/11/25 04:45:38;;;;;;;65.57;29.85;;;;;;;5.25;87.01;101217.72;5038331;28;20029;-71
2021/11/25 04:48:05;;;;;;;59.63;29.50;;;;;;;5.23;87.29;101220.41;5056001;28;20369;-72
2021/11/25 04:50:31;;;;;;;63.72;29.25;;;;;;;5.23;86.28;101220.41;5038154;28;20440;-72
2021/11/25 04:52:56;;;;;;;63.22;30.60;;;;;;;5.21;86.81;101230.03;5038194;28;20028;-71
2021/11/25 04:55:22;;;;;;;59.00;29.38;;;;;;;5.18;87.20;101222.63;5056647;28;20029;-72
2021/11/25 04:57:47;;;;;;;60.72;29.02;;;;;;;5.09;87.19;101226.84;5056136;28;20040;-71
2021/11/25 05:00:15;;;;;;;61.67;29.95;;;;;;;5.12;87.16;101215.47;5056369;28;20057;-72
2021/11/25 05:02:40;;;;;;;63.97;31.08;;;;;;;5.13;87.15;101214.53;5055711;28;20071;-72
2021/11/25 05:05:06;;;;;;;57.90;29.35;;;;;;;5.30;87.29;101216.38;5055947;28;20029;-72
2021/11/25 05:07:32;;;;;;;59.72;28.98;;;;;;;5.33;86.90;101213.50;5055658;28;20120;-72
2021/11/25 05:09:57;;;;;;;63.92;29.80;;;;;;;5.17;86.42;101203.06;5055522;28;20535;-71
2021/11/25 05:12:22;;;;;;;59.42;29.27;;;;;;;5.14;87.23;101198.22;5056165;28;20028;-72
2021/11/25 05:14:48;;;;;;;59.42;29.50;;;;;;;5.24;87.31;101193.06;5055631;28;20513;-72
2021/11/25 05:17:13;;;;;;;63.05;29.45;;;;;;;5.20;86.62;101190.75;5037712;28;20052;-72
2021/11/25 05:19:39;;;;;;;60.13;29.67;;;;;;;5.22;86.34;101187.28;5037561;28;20024;-72
2021/11/25 05:22:04;;;;;;;58.92;28.85;;;;;;;5.20;86.74;101182.28;5037514;28;20075;-72
2021/11/25 05:24:30;;;;;;;63.67;30.38;;;;;;;5.28;86.24;101179.00;5055727;28;20033;-73
2021/11/25 05:26:55;;;;;;;67.57;30.55;;;;;;;5.11;87.34;101171.13;5056230;28;20032;-72
2021/11/25 05:29:22;;;;;;;62.40;30.20;;;;;;;4.96;86.73;101152.03;5055507;28;20025;-74
2021/11/25 05:31:48;;;;;;;65.00;29.75;;;;;;;5.04;87.64;101184.66;5036990;28;20026;-71
2021/11/25 05:34:15;;;;;;;61.90;29.08;;;;;;;5.19;86.72;101184.03;5037329;28;20021;-71
2021/11/25 05:36:40;;;;;;;63.95;29.33;;;;;;;5.17;87.18;101185.91;5055265;28;20024;-73
2021/11/25 05:39:06;;;;;;;67.75;29.35;;;;;;;5.07;87.58;101182.59;5055244;28;20472;-72
2021/11/25 05:41:31;;;;;;;64.13;29.73;;;;;;;5.19;87.10;101176.34;5054905;28;20093;-72
2021/11/25 05:43:56;;;;;;;63.97;29.45;;;;;;;5.04;86.92;101169.28;5055266;28;20029;-72
2021/11/25 05:46:23;;;;;;;65.03;30.05;;;;;;;4.98;87.65;101170.66;5055015;28;20040;-72
2021/11/25 05:48:48;;;;;;;69.68;30.42;;;;;;;4.95;87.98;101170.94;5055018;28;20029;-72
2021/11/25 05:51:14;;;;;;;69.78;30.92;;;;;;;4.90;88.62;101176.47;5055053;28;20466;-72
2021/11/25 05:53:39;;;;;;;62.63;28.83;;;;;;;4.97;88.17;101180.06;5054925;28;20021;-71
2021/11/25 05:56:04;;;;;;;67.10;28.65;;;;;;;4.81;88.46;101181.63;5037006;28;20387;-72
2021/11/25 05:58:29;;;;;;;65.72;30.25;;;;;;;4.90;89.02;101208.97;5054811;28;20119;-72
2021/11/25 06:00:55;;;;;;;66.00;30.27;;;;;;;5.05;89.45;101204.19;5055218;28;20029;-72
2021/11/25 06:03:22;;;;;;;72.13;29.52;;;;;;;5.07;88.93;101200.53;5054658;28;20017;-72
2021/11/25 06:05:47;;;;;;;60.55;28.85;;;;;;;5.08;89.04;101198.78;5036706;28;20427;-72
2021/11/25 06:08:13;;;;;;;62.90;29.77;;;;;;;5.23;87.89;101194.81;5054401;28;20045;-72
2021/11/25 06:10:38;;;;;;;61.80;29.20;;;;;;;5.22;88.48;101197.53;5054840;28;20044;-72
2021/11/25 06:13:03;;;;;;;62.95;29.05;;;;;;;5.17;88.14;101180.78;5036546;28;20029;-72
2021/11/25 06:15:29;;;;;;;63.05;28.85;;;;;;;5.24;88.03;101186.19;5036515;28;20029;-72
2021/11/25 06:21:15;;;;;;;61.45;29.00;;;;;;;5.35;87.51;101168.06;5054372;28;20070;-72
2021/11/25 06:23:41;;;;;;;63.88;28.75;;;;;;;5.33;87.75;101171.72;5054213;28;20183;-72
2021/11/25 06:26:07;;;;;;;60.75;28.40;;;;;;;5.27;87.99;101173.09;5054696;28;20040;-72
2021/11/25 06:28:32;;;;;;;68.97;29.08;;;;;;;5.22;88.59;101175.25;5054105;28;20028;-72
2021/11/25 06:30:58;;;;;;;59.85;28.35;;;;;;;5.27;88.46;101172.28;5054191;28;20020;-72
2021/11/25 06:33:23;;;;;;;60.00;28.83;;;;;;;5.26;87.68;101152.72;5036491;28;20025;-73
2021/11/25 06:35:50;;;;;;;62.72;28.90;;;;;;;5.25;88.17;101153.66;5054858;28;20025;-72
2021/11/25 06:38:18;;;;;;;64.20;29.23;;;;;;;5.37;88.48;101153.31;5036884;28;20017;-73
2021/11/25 06:40:44;;;;;;;62.55;28.92;;;;;;;5.36;88.58;101154.28;5054477;28;20025;-72
2021/11/25 06:43:09;;;;;;;67.97;28.73;;;;;;;5.21;89.13;101137.78;5035926;28;20456;-73
2021/11/25 06:45:36;;;;;;;64.88;28.92;;;;;;;5.35;88.51;101157.81;5053653;28;20051;-72
2021/11/25 06:48:02;;;;;;;70.55;30.83;;;;;;;5.41;88.67;101161.56;5053874;28;20082;-73
2021/11/25 06:50:27;;;;;;;68.47;29.23;;;;;;;5.50;88.37;101149.63;5053893;28;20025;-73
2021/11/25 06:52:53;;;;;;;68.63;29.13;;;;;;;5.46;88.42;101153.41;5036013;28;20452;-73
2021/11/25 06:55:18;;;;;;;68.60;28.70;;;;;;;5.42;88.38;101146.00;5035857;28;20028;-72
2021/11/25 06:57:48;;;;;;;64.85;29.98;;;;;;;5.32;88.13;101129.06;5054041;28;20387;-73
2021/11/25 07:00:16;;;;;;;74.65;32.97;;;;;;;5.40;88.32;101139.41;5036141;28;20025;-73
2021/11/25 07:02:42;;;;;;;65.13;29.77;;;;;;;5.52;88.06;101152.84;5054450;28;20137;-73
2021/11/25 07:05:08;;;;;;;65.72;29.48;;;;;;;5.41;89.04;101146.97;5035894;28;20391;-72
2021/11/25 07:07:35;;;;;;;69.35;29.23;;;;;;;5.46;88.47;101148.28;5053650;28;20029;-73
2021/11/25 07:10:02;;;;;;;63.03;28.50;;;;;;;5.48;88.96;101151.53;5053318;28;20403;-73
2021/11/25 07:12:27;;;;;;;69.28;28.65;;;;;;;5.55;88.22;101147.41;5053400;28;20482;-72
2021/11/25 07:14:52;;;;;;;68.95;29.60;;;;;;;5.64;87.92;101159.38;5053861;28;20053;-73
2021/11/25 07:17:18;;;;;;;68.40;29.75;;;;;;;5.57;89.01;101155.78;5053429;28;20028;-72
2021/11/25 07:19:43;;;;;;;64.47;28.42;;;;;;;5.69;87.94;101161.50;5035394;28;20056;-71
2021/11/25 07:22:08;;;;;;;68.72;29.42;;;;;;;5.68;88.87;101160.69;5035358;28;20083;-73
2021/11/25 07:24:34;;;;;;;66.18;28.92;;;;;;;5.60;88.30;101163.19;5053127;28;20021;-71
2021/11/25 07:26:59;;;;;;;66.95;29.17;;;;;;;5.55;88.84;101160.22;5053219;28;20024;-72
2021/11/25 07:29:25;;;;;;;65.40;29.23;;;;;;;5.69;88.58;101159.75;5035137;28;20108;-72
2021/11/25 07:31:51;;;;;;;64.38;27.55;;;;;;;5.60;88.18;101153.72;5053136;28;20055;-73
2021/11/25 07:34:17;;;;;;;69.10;28.48;;;;;;;5.61;88.64;101164.78;5035386;28;20024;-73
2021/11/25 07:36:42;;;;;;;69.90;28.08;;;;;;;5.83;88.44;101155.88;5054322;28;20020;-73
2021/11/25 07:39:07;;;;;;;61.13;27.67;;;;;;;5.80;88.61;101156.16;5053736;28;20460;-73
2021/11/25 07:41:33;;;;;;;69.82;29.17;;;;;;;5.97;88.43;101160.50;5053007;28;20460;-73
2021/11/25 07:43:58;;;;;;;61.80;28.27;;;;;;;5.83;88.01;101164.38;5035289;28;20029;-73
2021/11/25 07:46:23;;;;;;;69.05;29.65;;;;;;;5.88;89.17;101172.44;5053067;28;20329;-73
2021/11/25 07:48:49;;;;;;;64.13;28.70;;;;;;;5.99;88.97;101176.56;5053086;28;20029;-72
2021/11/25 07:51:15;;;;;;;69.60;28.30;;;;;;;5.97;88.65;101163.09;5035035;28;20095;-72
2021/11/25 07:53:41;;;;;;;67.95;29.70;;;;;;;5.95;89.00;101161.59;5052806;28;20025;-72
2021/11/25 07:56:06;;;;;;;69.78;28.02;;;;;;;5.97;88.40;101160.50;5055648;28;20480;-72
2021/11/25 07:58:32;;;;;;;62.72;27.90;;;;;;;6.06;87.85;101162.19;5056914;28;20104;-71
2021/11/25 08:00:57;;;;;;;63.83;27.13;;;;;;;5.98;88.81;101156.97;5056889;28;20024;-74
2021/11/25 08:03:24;;;;;;;61.53;27.60;;;;;;;5.94;89.50;101160.81;5057866;28;20406;-71
2021/11/25 08:05:50;;;;;;;65.70;28.02;;;;;;;5.91;89.22;101163.63;5056631;28;20395;-71
2021/11/25 08:08:16;;;;;;;70.03;28.17;;;;;;;6.01;89.54;101166.16;5056362;28;20028;-72
2021/11/25 08:10:41;;;;;;;61.92;27.05;;;;;;;6.16;88.90;101174.13;5057313;28;20039;-71
2021/11/25 08:13:07;;;;;;;61.92;28.10;;;;;;;6.02;88.99;101180.59;5038624;28;20021;-71
2021/11/25 08:15:33;;;;;;;67.70;28.02;;;;;;;6.10;90.17;101173.00;5038748;28;20036;-71
2021/11/25 08:17:59;;;;;;;68.78;28.40;;;;;;;6.18;90.14;101170.47;5056507;28;20025;-71
2021/11/25 08:20:25;;;;;;;60.28;26.55;;;;;;;6.10;89.54;101185.81;5056490;28;20039;-71
2021/11/25 08:22:51;;;;;;;64.70;27.85;;;;;;;6.23;90.04;101185.44;5056440;28;20048;-72
2021/11/25 08:25:16;;;;;;;67.00;27.88;;;;;;;6.12;90.34;101190.78;5038515;28;20021;-72
2021/11/25 08:27:43;;;;;;;70.47;28.42;;;;;;;6.23;90.25;101185.44;5056297;28;20024;-71
2021/11/25 08:30:12;;;;;;;66.55;28.00;;;;;;;6.22;89.37;101174.34;5056231;28;20430;-72
2021/11/25 08:32:38;;;;;;;65.55;27.60;;;;;;;6.25;89.51;101171.50;5056464;28;20021;-71
2021/11/25 08:35:04;;;;;;;64.30;27.02;;;;;;;6.31;90.33;101176.03;5055994;28;20024;-69
2021/11/25 08:37:29;;;;;;;60.88;27.08;;;;;;;6.39;89.91;101175.28;5038091;28;20024;-71
2021/11/25 08:43:18;;;;;;;61.38;26.10;;;;;;;6.59;89.20;101172.50;5056307;28;20514;-72
2021/11/25 08:45:43;;;;;;;60.17;26.75;;;;;;;6.83;88.67;101182.16;5037811;28;20025;-72
2021/11/25 08:48:09;;;;;;;62.88;26.70;;;;;;;6.85;88.43;101170.75;5055933;28;20025;-71
2021/11/25 08:50:34;;;;;;;69.43;28.00;;;;;;;6.93;88.03;101175.13;5055554;28;20384;-72
2021/11/25 08:53:00;;;;;;;63.65;28.13;;;;;;;6.85;88.03;101172.50;5037831;28;20032;-71
2021/11/25 08:55:29;;;;;;;57.03;26.17;;;;;;;6.97;88.51;101161.03;5055637;28;20021;-72
2021/11/25 08:57:54;;;;;;;57.92;26.48;;;;;;;7.06;87.65;101152.38;5055682;28;20116;-72
2021/11/25 09:00:22;;;;;;;62.33;26.40;;;;;;;7.02;87.56;101156.22;5055648;28;20052;-73
2021/11/25 09:02:48;;;;;;;58.00;26.33;;;;;;;7.17;87.14;101157.25;5037753;28;20021;-74
2021/11/25 09:08:35;;;;;;;57.08;24.67;;;;;;;7.71;85.38;101154.34;5054320;28;20247;-73
2021/11/25 09:11:00;;;;;;;55.35;26.15;;;;;;;7.94;83.98;101157.09;5037604;28;20052;-72
2021/11/25 09:13:26;;;;;;;56.75;25.60;;;;;;;8.12;84.12;101170.59;5055586;28;20021;-71
2021/11/25 09:15:51;;;;;;;56.58;25.13;;;;;;;7.77;84.70;101170.88;5055205;28;20414;-72
2021/11/25 09:18:16;;;;;;;56.72;25.70;;;;;;;7.57;86.00;101175.53;5055866;28;20074;-72
2021/11/25 09:20:43;;;;;;;56.50;25.00;;;;;;;7.51;87.91;101179.53;5055895;28;20031;-72
2021/11/25 09:23:12;;;;;;;54.92;25.27;;;;;;;7.31;88.24;101175.59;5055421;28;20025;-72
2021/11/25 09:25:42;;;;;;;56.40;25.65;;;;;;;7.27;87.95;101175.09;5055322;28;20028;-71
2021/11/25 09:28:08;;;;;;;56.08;26.02;;;;;;;7.01;89.70;101170.81;5055255;28;20051;-68
2021/11/25 09:30:34;;;;;;;62.15;26.25;;;;;;;7.13;90.13;101181.63;5037367;28;20040;-70
2021/11/25 09:32:59;;;;;;;59.00;26.02;;;;;;;7.21;89.12;101184.25;5037218;28;20044;-70
2021/11/25 09:35:24;;;;;;;58.88;26.10;;;;;;;7.32;89.49;101187.50;5055080;28;20048;-72
2021/11/25 09:37:51;;;;;;;56.33;25.67;;;;;;;7.37;89.37;101187.84;5037393;28;20059;-71
2021/11/25 09:40:22;;;;;;;51.17;24.33;;;;;;;7.40;88.81;101195.25;5054901;28;20032;-70
2021/11/25 09:42:50;;;;;;;56.58;26.23;;;;;;;7.46;88.37;101185.13;5036923;28;20423;-70
2021/11/25 09:45:19;;;;;;;57.75;24.92;;;;;;;7.55;88.82;101180.81;5054792;28;20024;-70
2021/11/25 09:47:44;;;;;;;57.17;23.33;;;;;;;7.60;88.61;101188.88;5037050;28;20043;-70
2021/11/25 09:50:10;;;;;;;58.50;24.77;;;;;;;7.75;88.29;101173.63;5054850;28;20016;-71
2021/11/25 09:52:35;;;;;;;54.80;23.63;;;;;;;7.89;87.04;101172.22;5054936;28;20148;-71
2021/11/25 09:55:02;;;;;;;52.53;23.40;;;;;;;7.96;86.90;101170.59;5036948;28;20021;-70
2021/11/25 10:01:02;;;;;;;50.20;23.17;;;;;;;8.71;84.69;101180.69;5055074;28;20035;-70
2021/11/25 10:03:27;;;;;;;53.55;23.40;;;;;;;8.68;83.91;101173.28;5054669;28;20024;-71
2021/11/25 10:05:55;;;;;;;49.25;22.45;;;;;;;8.84;84.09;101176.81;5054614;28;20025;-71
2021/11/25 10:08:26;;;;;;;51.22;23.40;;;;;;;8.84;82.85;101174.25;5036330;28;20035;-71
2021/11/25 10:14:15;;;;;;;49.33;22.30;;;;;;;8.74;84.72;101188.09;5054918;28;20059;-72
2021/11/25 10:16:43;;;;;;;49.47;22.95;;;;;;;8.70;84.62;101186.84;5036402;28;20025;-72
2021/11/25 10:19:13;;;;;;;47.58;21.73;;;;;;;8.77;85.09;101187.75;5054023;28;20567;-71
2021/11/25 10:21:42;;;;;;;49.55;21.80;;;;;;;8.71;85.22;101190.22;5036111;28;20028;-71
2021/11/25 10:24:08;;;;;;;46.45;21.10;;;;;;;8.93;84.63;101192.09;5054204;28;20029;-72
2021/11/25 10:30:17;;;;;;;46.55;21.15;;;;;;;9.17;83.62;101192.97;5054569;28;20090;-72
2021/11/25 10:32:56;;;;;;;41.78;18.38;;;;;;;9.02;85.12;101193.66;5054038;28;20036;-72
2021/11/25 10:35:25;;;;;;;30.77;14.75;;;;;;;8.94;84.87;101190.31;5036159;28;20031;-69
2021/11/25 10:38:19;;;;;;;34.97;15.70;;;;;;;8.89;85.75;101192.56;5053969;28;20029;-72
2021/11/25 10:40:39;;;;;;;33.30;14.30;;;;;;;8.96;85.42;101191.75;5053653;28;20484;-72
2021/11/25 10:43:19;;;;;;;30.50;14.68;;;;;;;9.25;84.13;101187.78;5053887;28;20028;-71
2021/11/25 10:45:47;;;;;;;32.75;15.15;;;;;;;9.49;84.39;101185.09;5036234;28;20115;-72
2021/11/25 10:51:35;;;;;;;29.55;13.23;;;;;;;9.53;83.33;101193.28;5054736;28;20032;-71
2021/11/25 10:54:04;;;;;;;30.17;13.10;;;;;;;9.35;83.67;101190.97;5054119;28;20069;-74
2021/11/25 10:59:53;;;;;;;28.10;11.57;;;;;;;9.41;82.54;101187.72;5054363;28;20048;-74
2021/11/25 11:02:18;;;;;;;26.35;11.98;;;;;;;9.54;83.78;101192.31;5053983;28;20064;-74
2021/11/25 11:04:45;;;;;;;25.60;11.52;;;;;;;9.52;82.86;101196.03;5036122;28;20029;-73
2021/11/25 11:07:44;;;;;;;26.83;11.27;;;;;;;9.27;84.62;101201.31;5036523;28;20019;-72
2021/11/25 11:14:28;;;;;;;16.73;7.45;;;;;;;9.19;83.98;101199.56;5054420;28;20040;-72
2021/11/25 11:16:53;;;;;;;19.25;5.70;;;;;;;9.07;82.13;101194.97;5053490;28;20098;-72
2021/11/25 11:19:18;;;;;;;12.30;4.07;;;;;;;9.08;81.00;101197.34;5053592;28;20472;-71
2021/11/25 11:21:51;;;;;;;13.68;3.88;;;;;;;9.19;81.60;101197.00;5035821;28;20025;-74
2021/11/25 11:24:21;;;;;;;14.32;3.28;;;;;;;9.25;79.07;101190.34;5054502;28;20029;-74
2021/11/25 11:30:08;;;;;;;13.82;2.85;;;;;;;9.51;78.51;101178.94;5053012;28;20040;-73
2021/11/25 11:32:34;;;;;;;11.10;2.30;;;;;;;9.67;76.71;101176.28;5035340;28;20476;-74
2021/11/25 11:35:00;;;;;;;11.82;2.50;;;;;;;9.77;76.66;101173.47;5035653;28;20041;-72
2021/11/25 11:40:47;;;;;;;11.75;2.08;;;;;;;10.24;74.18;101170.69;5053216;28;20054;-72
2021/11/25 11:43:13;;;;;;;14.80;2.58;;;;;;;10.16;76.03;101170.75;5053326;28;20033;-71
2021/11/25 11:45:40;;;;;;;11.20;1.60;;;;;;;9.92;74.06;101176.91;5053185;28;20100;-73
2021/11/25 11:48:10;;;;;;;11.73;1.60;;;;;;;9.85;75.08;101176.00;5035200;28;20075;-71
2021/11/25 11:50:53;;;;;;;7.65;1.60;;;;;;;10.16;74.27;101168.97;5034838;28;20499;-71
2021/11/25 11:53:21;;;;;;;8.20;1.60;;;;;;;10.45;73.02;101175.22;5053559;28;20475;-72
2021/11/25 11:55:56;;;;;;;11.35;1.55;;;;;;;10.05;71.40;101171.97;5053135;28;20055;-72
2021/11/25 11:58:28;;;;;;;10.90;1.60;;;;;;;9.90;74.60;101164.19;5035076;28;20043;-72